Riaza, Spain
Current Conditions -  °F | °C
As of 5:00 PM on Wednesday 26 Nov 2014 (Local Time) from LECV Reporting Station
Broken Clouds Broken Clouds  
Wind Chill: 46°   Ceiling: 4000
Heat Index: 48°   Visibility: 6mi
Dew Point: 37°   Wind: 5mph
Humidity: 66%   Direction: 230°SW
Pressure: 29.85"   Gusts: NA
Location:  41.28°N, 3.48°W
Report Text: LECV 261600Z 23004KT 9999 FEW020 BKN040 09/03 Q1011
Loading
Personal Weather Stations






























Interactive Weather Map New forecast layout! Learn more

10-Day Weather Forecast

Advertisements
Track Severe Weather on mobile